createdAt,value
2023-03-31T00:02:24.999Z,8.70
2023-03-31T00:04:54.850Z,9.90
2023-03-31T00:07:24.522Z,10.10
2023-03-31T00:10:03.656Z,9.70
2023-03-31T00:12:33.883Z,9.10
2023-03-31T00:15:00.811Z,9.70
2023-03-31T00:17:27.446Z,9.80
2023-03-31T00:20:00.105Z,7.70
2023-03-31T00:22:30.170Z,9.00
2023-03-31T00:24:56.815Z,8.70
2023-03-31T00:27:23.441Z,8.60
2023-03-31T00:29:50.807Z,9.90
2023-03-31T00:32:17.513Z,9.00
2023-03-31T00:34:46.246Z,8.90
2023-03-31T00:37:14.823Z,8.90
2023-03-31T00:39:42.188Z,8.50
2023-03-31T00:42:14.841Z,8.20
2023-03-31T00:45:00.526Z,8.80
2023-03-31T00:47:28.097Z,8.80
2023-03-31T00:49:57.079Z,9.60
2023-03-31T00:52:26.605Z,8.10
2023-03-31T00:54:59.107Z,8.80
2023-03-31T00:57:28.712Z,8.70
2023-03-31T01:00:14.478Z,10.00
2023-03-31T01:02:52.266Z,8.50
2023-03-31T01:05:21.427Z,8.90
2023-03-31T01:07:49.644Z,11.10
2023-03-31T01:10:16.551Z,8.70
2023-03-31T01:12:45.678Z,8.40
2023-03-31T01:15:12.406Z,8.70
2023-03-31T01:17:40.801Z,9.70
2023-03-31T01:20:18.290Z,9.10
2023-03-31T01:23:13.552Z,8.90
2023-03-31T01:25:50.428Z,9.00
2023-03-31T01:28:36.055Z,8.90
2023-03-31T01:31:02.964Z,8.80
2023-03-31T01:33:49.900Z,8.50
2023-03-31T01:36:16.591Z,7.90
2023-03-31T01:39:01.558Z,8.10
2023-03-31T01:41:40.513Z,8.80
2023-03-31T01:44:20.430Z,8.90
2023-03-31T01:46:55.963Z,9.00
2023-03-31T01:49:40.828Z,8.90
2023-03-31T01:52:25.821Z,9.00
2023-03-31T01:54:57.306Z,9.00
2023-03-31T01:57:35.320Z,8.80
2023-03-31T02:00:14.223Z,9.00
2023-03-31T02:02:40.912Z,8.90
2023-03-31T02:05:10.528Z,8.70
2023-03-31T02:07:44.509Z,8.80
2023-03-31T02:10:12.047Z,8.80
2023-03-31T02:12:39.744Z,8.60
2023-03-31T02:15:09.444Z,9.70
2023-03-31T02:17:40.561Z,8.60
2023-03-31T02:20:11.274Z,8.40
2023-03-31T02:22:39.151Z,8.50
2023-03-31T02:25:07.360Z,7.40
2023-03-31T02:27:42.342Z,8.40
2023-03-31T02:30:09.646Z,8.60
2023-03-31T02:32:40.890Z,8.50
2023-03-31T02:35:09.631Z,8.50
2023-03-31T02:37:36.679Z,8.50
2023-03-31T02:40:06.433Z,7.90
2023-03-31T02:42:33.109Z,9.70
2023-03-31T02:45:07.154Z,9.60
2023-03-31T02:47:34.335Z,8.70
2023-03-31T02:50:01.845Z,8.60
2023-03-31T02:52:43.559Z,8.70
2023-03-31T02:55:10.181Z,8.70
2023-03-31T02:57:53.942Z,8.50
2023-03-31T03:00:36.322Z,8.70
2023-03-31T03:03:29.164Z,8.70
2023-03-31T03:06:05.857Z,8.70
2023-03-31T03:08:44.667Z,8.70
2023-03-31T03:11:19.036Z,8.70
2023-03-31T03:13:54.026Z,8.80
2023-03-31T03:16:39.568Z,9.10
2023-03-31T03:19:06.875Z,8.90
2023-03-31T03:21:33.818Z,8.70
2023-03-31T03:24:01.717Z,10.20
2023-03-31T03:26:28.756Z,8.60
2023-03-31T03:28:55.892Z,8.50
2023-03-31T03:31:23.976Z,8.10
2023-03-31T03:33:51.000Z,7.60
2023-03-31T03:36:17.738Z,8.50
2023-03-31T03:38:44.619Z,8.60
2023-03-31T03:41:11.434Z,9.40
2023-03-31T03:43:38.068Z,10.20
2023-03-31T03:46:05.678Z,8.70
2023-03-31T03:48:32.511Z,9.10
2023-03-31T03:50:59.809Z,9.30
2023-03-31T03:53:26.790Z,7.80
2023-03-31T03:55:53.455Z,7.70
2023-03-31T03:58:20.091Z,8.80
2023-03-31T04:00:47.446Z,8.80
2023-03-31T04:03:14.838Z,8.40
2023-03-31T04:05:41.601Z,8.20
2023-03-31T04:08:08.817Z,9.90
2023-03-31T04:10:35.900Z,8.80
2023-03-31T04:13:02.533Z,8.50
2023-03-31T04:15:29.130Z,8.50
2023-03-31T04:17:58.174Z,8.40
2023-03-31T04:20:31.511Z,8.80
2023-03-31T04:22:58.204Z,8.70
2023-03-31T04:25:38.593Z,8.20
2023-03-31T04:28:07.003Z,9.10
2023-03-31T04:30:33.703Z,9.20
2023-03-31T04:33:04.194Z,8.30
2023-03-31T04:35:49.536Z,9.60
2023-03-31T04:38:18.777Z,7.90
2023-03-31T04:40:46.217Z,9.60
2023-03-31T04:43:12.887Z,8.10
2023-03-31T04:45:39.736Z,10.40
2023-03-31T04:48:06.688Z,8.80
2023-03-31T04:50:33.442Z,9.20
2023-03-31T04:53:00.120Z,8.50
2023-03-31T04:55:27.256Z,8.90
2023-03-31T04:57:53.935Z,10.10
2023-03-31T05:00:20.888Z,8.40
2023-03-31T05:02:47.638Z,9.10
2023-03-31T05:05:14.355Z,9.40
2023-03-31T05:07:41.280Z,8.40
2023-03-31T05:10:08.187Z,8.70
2023-03-31T05:12:37.996Z,9.00
2023-03-31T05:15:05.435Z,8.80
2023-03-31T05:17:33.008Z,8.90
2023-03-31T05:20:00.101Z,8.80
2023-03-31T05:22:27.244Z,8.80
2023-03-31T05:24:53.852Z,8.60
2023-03-31T05:27:21.916Z,8.60
2023-03-31T05:29:48.588Z,8.70
2023-03-31T05:32:15.214Z,9.20
2023-03-31T05:34:43.281Z,8.40
2023-03-31T05:37:09.920Z,8.80
2023-03-31T05:39:36.571Z,8.80
2023-03-31T05:42:03.597Z,8.70
2023-03-31T05:44:30.156Z,9.00
2023-03-31T05:46:56.816Z,8.70
2023-03-31T05:49:23.453Z,9.50
2023-03-31T05:51:50.903Z,8.80
2023-03-31T05:54:17.529Z,8.70
2023-03-31T05:56:44.255Z,9.90
2023-03-31T05:59:10.885Z,8.90
2023-03-31T06:01:37.603Z,9.10
2023-03-31T06:04:04.295Z,8.80
2023-03-31T06:06:30.855Z,9.00
2023-03-31T06:08:57.503Z,9.00
2023-03-31T06:11:24.264Z,9.10
2023-03-31T06:13:50.842Z,10.20
2023-03-31T06:16:17.841Z,8.00
2023-03-31T06:18:44.765Z,8.70
2023-03-31T06:21:13.087Z,8.70
2023-03-31T06:23:39.818Z,10.00
2023-03-31T06:26:08.388Z,8.80
2023-03-31T06:28:35.964Z,8.50
2023-03-31T06:31:03.911Z,9.10
2023-03-31T06:33:31.188Z,8.90
2023-03-31T06:35:58.325Z,8.90
2023-03-31T06:38:25.512Z,10.20
2023-03-31T06:40:52.162Z,9.10
2023-03-31T06:43:18.844Z,9.90
2023-03-31T06:45:45.519Z,7.90
2023-03-31T06:48:12.283Z,9.70
2023-03-31T06:50:39.401Z,8.10
2023-03-31T06:53:06.204Z,8.40
2023-03-31T06:55:33.849Z,8.80
2023-03-31T06:58:00.690Z,7.30
2023-03-31T07:00:27.634Z,8.70
2023-03-31T07:02:54.893Z,8.80
2023-03-31T07:05:27.305Z,8.20
2023-03-31T07:07:54.692Z,8.90
2023-03-31T07:10:21.620Z,8.50
2023-03-31T07:12:48.356Z,8.20
2023-03-31T07:15:15.297Z,8.50
2023-03-31T07:17:42.262Z,8.90
2023-03-31T07:20:12.942Z,8.50
2023-03-31T07:22:41.472Z,8.90
2023-03-31T07:25:09.090Z,8.80
2023-03-31T07:27:36.284Z,8.90
2023-03-31T07:30:10.696Z,10.30
2023-03-31T07:32:41.309Z,8.90
2023-03-31T07:35:09.038Z,8.50
2023-03-31T07:37:39.810Z,9.10
2023-03-31T07:40:06.967Z,9.00
2023-03-31T07:42:34.077Z,9.00
2023-03-31T07:45:00.764Z,8.60
2023-03-31T07:47:28.063Z,9.00
2023-03-31T07:49:54.968Z,8.10
2023-03-31T07:52:21.668Z,9.90
2023-03-31T07:54:48.392Z,8.60
2023-03-31T07:57:16.668Z,8.50
2023-03-31T07:59:43.368Z,8.90
2023-03-31T08:02:12.334Z,8.90
2023-03-31T08:04:39.111Z,8.60
2023-03-31T08:07:05.971Z,9.90
2023-03-31T08:09:32.610Z,8.70
2023-03-31T08:11:59.248Z,9.30
2023-03-31T08:14:40.076Z,8.50
2023-03-31T08:17:07.446Z,9.50
2023-03-31T08:19:34.090Z,8.80
2023-03-31T08:22:00.993Z,8.60
2023-03-31T08:24:27.876Z,9.90
2023-03-31T08:26:54.518Z,8.30
2023-03-31T08:29:21.153Z,8.40
2023-03-31T08:31:47.761Z,8.50
2023-03-31T08:34:14.380Z,8.80
2023-03-31T08:36:41.224Z,8.80
2023-03-31T08:39:08.111Z,9.10
2023-03-31T08:41:43.829Z,8.80
2023-03-31T08:44:30.961Z,9.00
2023-03-31T08:46:59.237Z,10.00
2023-03-31T08:49:26.747Z,8.80
2023-03-31T08:51:55.872Z,9.00
2023-03-31T08:54:31.452Z,9.20
2023-03-31T08:56:58.142Z,9.50
2023-03-31T08:59:33.197Z,10.80
2023-03-31T09:02:19.063Z,9.70
2023-03-31T09:05:07.021Z,9.80
2023-03-31T09:07:46.240Z,9.90
2023-03-31T09:10:12.840Z,10.10
2023-03-31T09:12:46.032Z,10.40
2023-03-31T09:15:26.840Z,10.60
2023-03-31T09:17:55.632Z,10.60
2023-03-31T09:20:25.677Z,10.60
2023-03-31T09:22:57.385Z,10.30
2023-03-31T09:25:26.418Z,10.20
2023-03-31T09:27:54.243Z,10.10
2023-03-31T09:30:22.914Z,10.10
2023-03-31T09:32:52.594Z,10.10
2023-03-31T09:35:25.835Z,10.90
2023-03-31T09:37:52.946Z,10.40
2023-03-31T09:40:24.039Z,10.50
2023-03-31T09:42:59.326Z,10.60
2023-03-31T09:45:26.056Z,10.80
2023-03-31T09:47:54.933Z,11.10
2023-03-31T09:50:25.135Z,11.20
2023-03-31T09:52:53.223Z,11.20
2023-03-31T09:55:38.244Z,11.80
2023-03-31T09:58:06.878Z,11.50
2023-03-31T10:00:34.052Z,11.10
2023-03-31T10:03:07.821Z,12.00
2023-03-31T10:06:04.778Z,11.00
2023-03-31T10:11:59.745Z,9.50
2023-03-31T10:14:56.042Z,8.40
2023-03-31T10:17:26.706Z,7.80
2023-03-31T10:20:10.900Z,8.80
2023-03-31T10:22:43.119Z,8.20
2023-03-31T10:28:11.287Z,9.00
2023-03-31T10:30:48.218Z,8.90
2023-03-31T10:33:23.097Z,9.00
2023-03-31T10:36:00.361Z,9.10
2023-03-31T10:38:32.036Z,8.70
2023-03-31T10:41:27.853Z,8.20
2023-03-31T10:46:55.404Z,8.20
2023-03-31T10:49:29.410Z,8.60
2023-03-31T10:52:03.950Z,8.90
2023-03-31T10:54:42.099Z,7.60
2023-03-31T10:57:20.820Z,8.20
2023-03-31T11:00:08.325Z,8.50
2023-03-31T11:02:56.802Z,8.20
2023-03-31T11:05:26.565Z,8.20
2023-03-31T11:08:05.866Z,8.20
2023-03-31T11:10:54.849Z,8.10
2023-03-31T11:13:52.155Z,8.10
2023-03-31T11:16:49.861Z,8.10
2023-03-31T11:19:29.550Z,7.50
2023-03-31T11:22:04.547Z,8.20
2023-03-31T11:28:05.940Z,8.30
2023-03-31T11:30:42.402Z,8.20
2023-03-31T11:33:12.217Z,8.20
2023-03-31T11:36:00.402Z,8.20
2023-03-31T11:38:53.797Z,8.30
2023-03-31T11:41:33.947Z,7.60
2023-03-31T11:44:05.524Z,9.30
2023-03-31T11:46:44.020Z,8.60
2023-03-31T11:49:13.769Z,8.60
2023-03-31T11:51:43.435Z,8.50
2023-03-31T11:54:20.673Z,8.40
2023-03-31T11:56:48.638Z,8.50
2023-03-31T11:59:17.340Z,8.30
2023-03-31T12:01:55.219Z,9.10
2023-03-31T12:04:56.063Z,8.60
2023-03-31T12:07:39.741Z,8.80
2023-03-31T12:13:42.648Z,9.20
2023-03-31T12:16:30.388Z,9.40
2023-03-31T12:19:02.492Z,9.50
2023-03-31T12:21:49.274Z,10.30
2023-03-31T12:24:34.453Z,9.70
2023-03-31T12:27:25.065Z,9.00
2023-03-31T12:29:54.991Z,9.70
2023-03-31T12:35:41.136Z,10.70
2023-03-31T12:38:41.510Z,10.40
2023-03-31T12:41:27.171Z,10.80
2023-03-31T12:44:02.980Z,11.00
2023-03-31T12:46:36.919Z,10.40
2023-03-31T12:49:09.736Z,10.30
2023-03-31T12:55:00.515Z,9.20
2023-03-31T12:57:39.300Z,9.50
2023-03-31T13:00:08.240Z,9.40
2023-03-31T13:02:40.619Z,8.50
2023-03-31T13:05:36.315Z,9.00
2023-03-31T13:08:04.299Z,8.50
2023-03-31T13:10:32.624Z,8.60
2023-03-31T13:13:20.063Z,8.70
2023-03-31T13:15:53.515Z,8.80
2023-03-31T13:18:21.867Z,8.90
2023-03-31T13:24:21.138Z,9.50
2023-03-31T13:29:55.204Z,9.80
2023-03-31T13:41:37.248Z,12.30
2023-03-31T13:44:16.546Z,13.50
2023-03-31T13:49:57.975Z,14.20
2023-03-31T13:55:15.873Z,15.70
2023-03-31T13:58:05.402Z,14.80
2023-03-31T14:00:57.334Z,15.50
2023-03-31T14:03:37.692Z,16.10
2023-03-31T14:06:15.616Z,15.90
2023-03-31T14:08:53.418Z,15.60
2023-03-31T14:11:23.170Z,14.30
2023-03-31T14:14:06.996Z,13.90
2023-03-31T14:16:37.550Z,13.80
2023-03-31T14:19:25.734Z,14.80
2023-03-31T14:21:57.491Z,16.90
2023-03-31T14:24:24.178Z,15.10
2023-03-31T14:27:26.648Z,14.60
2023-03-31T14:29:59.956Z,13.60
2023-03-31T14:32:26.676Z,13.30
2023-03-31T14:34:54.069Z,12.70
2023-03-31T14:37:24.587Z,12.80
2023-03-31T14:39:56.678Z,12.90
2023-03-31T14:42:39.630Z,12.20
2023-03-31T14:45:17.331Z,12.20
2023-03-31T14:47:53.674Z,12.80
2023-03-31T14:50:26.234Z,13.00
2023-03-31T14:52:52.955Z,16.20
2023-03-31T14:57:56.286Z,17.00
2023-03-31T15:00:30.419Z,17.00
2023-03-31T15:03:01.966Z,16.10
2023-03-31T15:05:30.623Z,16.10
2023-03-31T15:08:10.183Z,15.90
2023-03-31T15:10:44.805Z,14.50
2023-03-31T15:13:15.372Z,13.60
2023-03-31T15:15:46.553Z,12.40
2023-03-31T15:18:15.370Z,13.40
2023-03-31T15:20:42.873Z,13.50
2023-03-31T15:23:39.002Z,12.60
2023-03-31T15:26:08.692Z,12.40
2023-03-31T15:28:50.345Z,12.10
2023-03-31T15:31:17.239Z,12.30
2023-03-31T15:33:47.063Z,12.30
2023-03-31T15:36:15.634Z,13.00
2023-03-31T15:38:45.574Z,13.20
2023-03-31T15:41:18.516Z,12.30
2023-03-31T15:43:46.599Z,12.00
2023-03-31T15:46:21.301Z,12.70
2023-03-31T15:48:54.491Z,12.30
2023-03-31T15:51:31.116Z,12.40
2023-03-31T15:53:58.063Z,12.50
2023-03-31T15:56:29.033Z,13.50
2023-03-31T15:58:58.234Z,13.00
2023-03-31T16:01:29.502Z,13.70
2023-03-31T16:04:01.201Z,12.20
2023-03-31T16:06:34.083Z,13.50
2023-03-31T16:09:10.352Z,12.50
2023-03-31T16:11:48.634Z,12.90
2023-03-31T16:14:38.699Z,12.70
2023-03-31T16:17:07.397Z,12.80
2023-03-31T16:19:45.332Z,12.90
2023-03-31T16:22:33.858Z,13.90
2023-03-31T16:25:01.832Z,13.90
2023-03-31T16:27:28.690Z,15.20
2023-03-31T16:30:10.534Z,15.20
2023-03-31T16:32:37.326Z,14.70
2023-03-31T16:35:07.707Z,14.20
2023-03-31T16:37:36.147Z,12.90
2023-03-31T16:40:05.186Z,13.20
2023-03-31T16:42:34.347Z,12.40
2023-03-31T16:45:13.732Z,12.50
2023-03-31T16:47:43.588Z,12.70
2023-03-31T16:50:12.107Z,12.70
2023-03-31T16:52:39.066Z,12.70
2023-03-31T16:55:05.730Z,12.40
2023-03-31T16:57:32.650Z,11.80
2023-03-31T16:59:59.735Z,11.80
2023-03-31T17:02:26.718Z,12.30
2023-03-31T17:04:56.635Z,12.50
2023-03-31T17:07:23.596Z,11.70
2023-03-31T17:09:50.435Z,12.10
2023-03-31T17:12:17.082Z,12.10
2023-03-31T17:14:43.825Z,11.30
2023-03-31T17:17:10.556Z,12.00
2023-03-31T17:19:37.305Z,12.00
2023-03-31T17:22:03.996Z,11.10
2023-03-31T17:24:30.834Z,11.10
2023-03-31T17:27:00.435Z,11.80
2023-03-31T17:29:29.911Z,11.60
2023-03-31T17:31:56.686Z,11.60
2023-03-31T17:34:23.415Z,11.50
2023-03-31T17:36:51.474Z,10.60
2023-03-31T17:39:18.370Z,11.10
2023-03-31T17:41:45.028Z,10.70
2023-03-31T17:44:14.712Z,11.20
2023-03-31T17:46:41.533Z,10.30
2023-03-31T17:49:08.325Z,11.10
2023-03-31T17:51:36.382Z,11.00
2023-03-31T17:54:03.956Z,10.20
2023-03-31T17:56:34.686Z,10.20
2023-03-31T17:59:01.672Z,10.40
2023-03-31T18:01:28.512Z,9.90
2023-03-31T18:03:58.528Z,10.90
2023-03-31T18:06:25.291Z,10.10
2023-03-31T18:08:51.951Z,10.10
2023-03-31T18:11:18.655Z,11.00
2023-03-31T18:13:45.254Z,11.00
2023-03-31T18:16:13.088Z,10.10
2023-03-31T18:18:40.198Z,10.00
2023-03-31T18:21:08.751Z,10.60
2023-03-31T18:23:35.978Z,10.40
2023-03-31T18:26:05.705Z,10.90
2023-03-31T18:28:32.518Z,10.40
2023-03-31T18:31:02.352Z,10.20
2023-03-31T18:33:29.070Z,10.00
2023-03-31T18:38:25.365Z,9.90
2023-03-31T18:40:55.171Z,10.00
2023-03-31T18:43:24.878Z,10.40
2023-03-31T18:45:53.755Z,10.10
2023-03-31T18:48:24.013Z,10.70
2023-03-31T18:50:52.019Z,10.70
2023-03-31T18:53:19.344Z,10.30
2023-03-31T18:55:52.659Z,10.30
2023-03-31T18:58:19.706Z,9.90
2023-03-31T19:00:46.474Z,10.60
2023-03-31T19:03:13.822Z,10.20
2023-03-31T19:05:40.934Z,10.70
2023-03-31T19:08:07.899Z,10.80
2023-03-31T19:10:34.704Z,10.90
2023-03-31T19:13:01.359Z,10.80
2023-03-31T19:15:28.498Z,10.60
2023-03-31T19:17:55.580Z,10.40
2023-03-31T19:20:22.388Z,10.70
2023-03-31T19:22:50.432Z,10.50
2023-03-31T19:25:18.159Z,10.20
2023-03-31T19:27:46.136Z,10.50
2023-03-31T19:30:17.451Z,10.80
2023-03-31T19:32:44.569Z,10.00
2023-03-31T19:35:11.381Z,10.70
2023-03-31T19:37:38.794Z,10.40
2023-03-31T19:40:05.860Z,9.90
2023-03-31T19:42:35.911Z,9.80
2023-03-31T19:45:02.855Z,9.80
2023-03-31T19:47:29.585Z,9.80
2023-03-31T19:49:56.320Z,9.70
2023-03-31T19:52:26.238Z,10.60
2023-03-31T19:54:57.829Z,10.10
2023-03-31T19:57:24.544Z,9.10
2023-03-31T19:59:51.329Z,10.70
2023-03-31T20:04:59.221Z,9.50
2023-03-31T20:07:32.015Z,9.50
2023-03-31T20:09:58.689Z,9.40
2023-03-31T20:12:25.373Z,9.40
2023-03-31T20:14:52.505Z,9.30
2023-03-31T20:17:19.440Z,9.70
2023-03-31T20:19:48.578Z,9.30
2023-03-31T20:22:16.457Z,9.20
2023-03-31T20:24:49.463Z,9.70
2023-03-31T20:27:18.757Z,8.90
2023-03-31T20:30:11.400Z,8.80
2023-03-31T20:32:39.198Z,8.00
2023-03-31T20:35:14.876Z,9.10
2023-03-31T20:37:45.679Z,8.30
2023-03-31T20:46:29.967Z,8.30
2023-03-31T20:49:22.593Z,7.50
2023-03-31T20:51:59.092Z,7.80
2023-03-31T20:54:33.203Z,8.10
2023-03-31T20:57:01.677Z,8.20
2023-03-31T20:59:28.823Z,8.20
2023-03-31T21:01:57.129Z,8.60
2023-03-31T21:07:22.895Z,8.10
2023-03-31T21:09:49.813Z,7.90
2023-03-31T21:12:16.586Z,8.00
2023-03-31T21:14:43.917Z,8.90
2023-03-31T21:17:10.628Z,9.00
2023-03-31T21:19:37.295Z,8.90
2023-03-31T21:22:05.750Z,8.20
2023-03-31T21:24:41.949Z,9.40
2023-03-31T21:27:08.863Z,9.00
2023-03-31T21:29:41.129Z,9.00
2023-03-31T21:32:11.064Z,8.50
2023-03-31T21:34:37.843Z,8.20
2023-03-31T21:37:04.983Z,8.10
2023-03-31T21:39:31.786Z,8.20
2023-03-31T21:41:58.600Z,8.30
2023-03-31T21:44:26.388Z,7.50
2023-03-31T21:46:53.331Z,8.30
2023-03-31T21:49:20.261Z,8.80
2023-03-31T21:51:47.430Z,9.00
2023-03-31T21:54:15.950Z,9.10
2023-03-31T21:56:42.703Z,8.60
2023-03-31T21:59:09.425Z,9.40
2023-03-31T22:01:36.305Z,8.70
2023-03-31T22:04:13.348Z,8.80
2023-03-31T22:06:43.025Z,8.30
2023-03-31T22:09:10.182Z,8.30
2023-03-31T22:11:47.463Z,9.40
2023-03-31T22:14:22.716Z,9.60
2023-03-31T22:16:49.431Z,8.40
2023-03-31T22:19:16.567Z,8.80
2023-03-31T22:21:43.960Z,8.50
2023-03-31T22:24:25.101Z,9.30
2023-03-31T22:26:51.943Z,9.30
2023-03-31T22:29:18.630Z,7.30
2023-03-31T22:31:51.436Z,7.30
2023-03-31T22:34:19.675Z,8.20
2023-03-31T22:36:59.042Z,9.10
2023-03-31T22:39:34.622Z,8.50
2023-03-31T22:42:14.583Z,8.40
2023-03-31T22:44:44.549Z,8.30
2023-03-31T22:47:14.569Z,8.50
2023-03-31T22:49:47.367Z,9.40
2023-03-31T22:52:14.112Z,8.40
2023-03-31T22:54:43.785Z,9.90
2023-03-31T22:57:11.227Z,8.80
2023-03-31T22:59:40.794Z,7.90
2023-03-31T23:02:07.456Z,7.80
2023-03-31T23:04:34.379Z,9.60
2023-03-31T23:07:01.220Z,8.90
2023-03-31T23:09:28.020Z,8.10
2023-03-31T23:11:54.721Z,9.30
2023-03-31T23:14:30.322Z,10.00
2023-03-31T23:17:04.903Z,7.80
2023-03-31T23:19:32.081Z,8.80
2023-03-31T23:22:02.608Z,10.10
2023-03-31T23:24:32.601Z,10.20
2023-03-31T23:26:59.286Z,8.90
2023-03-31T23:29:26.094Z,9.60
2023-03-31T23:31:53.009Z,7.10
2023-03-31T23:34:25.091Z,9.40
2023-03-31T23:36:54.415Z,9.70
2023-03-31T23:39:21.573Z,9.10
2023-03-31T23:41:48.454Z,9.20
2023-03-31T23:44:15.385Z,8.20
2023-03-31T23:46:44.336Z,9.70
2023-03-31T23:49:11.891Z,8.30
2023-03-31T23:51:38.755Z,10.40
2023-03-31T23:54:05.562Z,9.70
2023-03-31T23:56:32.406Z,9.80
2023-03-31T23:59:00.284Z,8.80
